M I D A S
Marine Information and Data Acquisition System
Tripno 653 of the Zeeleeuw from 2004-02-23 08:00:59 to 2004-02-23 13:38:13
Back to CruiseResearch ActivitiesStationsMapUnderway DataData graphs

EquipmentUnitsComments
TimeDGPSUTC
LatitudeDGPSDM.mWGS84
LongitudeDGPSDM.mWGS84
SpeedMeteo Stationm/sRelative wind speed
DirectionMeteo StationdegRelative wind direction
TemperatureMeteo Stationdeg CelciusAir temperature
PressureMeteo StationPaAtmospheric pressure
HumidityMeteo Station%Relative humidity
Missing or incorrect values are displayed as -999
Metereological data collected by the RV Zeeleeuw from 2004-02-23 08:00:59 to 2004-02-23 13:38:13
Time Latitude Longitude Speed Direction Temperature Pressure Humidity
2004-02-23 08:02 51°13.593 2°56.106 2.7 247 2.7 101810 80
2004-02-23 08:03 51°13.597 2°56.086 5.4 229 2.7 101810 80
2004-02-23 08:04 51°13.619 2°56.001 4.8 203 2.7 101810 80
2004-02-23 08:05 51°13.662 2°55.889 8.3 218 2.8 101810 80
2004-02-23 08:06 51°13.701 2°55.765 7.2 232 2.8 101800 79
2004-02-23 08:07 51°13.711 2°55.752 5.6 300 2.9 101800 79
2004-02-23 08:08 51°13.713 2°55.745 7.5 356 3 101810 80
2004-02-23 08:09 51°13.778 2°55.685 8.5 26 3 101800 79
2004-02-23 08:10 51°13.88 2°55.588 11.8 17 3.1 101780 80
2004-02-23 08:11 51°14.002 2°55.503 11 20 3.1 101790 79
2004-02-23 08:12 51°14.132 2°55.407 12.4 18 3.2 101790 79
2004-02-23 08:13 51°14.275 2°55.245 11.4 23 3.3 101790 78
2004-02-23 08:14 51°14.386 2°54.983 11.7 44 3.4 101800 77
2004-02-23 08:15 51°14.402 2°54.716 8.1 73 3.4 101780 76
2004-02-23 08:16 51°14.365 2°54.481 8.5 83 3.5 101790 76
2004-02-23 08:17 51°14.281 2°54.185 8 83 3.5 101770 75
2004-02-23 08:18 51°14.166 2°53.864 8.7 63 3.5 101780 75
2004-02-23 08:19 51°14.045 2°53.532 8.2 70 3.6 101780 74
2004-02-23 08:20 51°13.933 2°53.178 9 62 3.6 101780 73
2004-02-23 08:21 51°13.819 2°52.83 8.9 51 3.6 101800 73
2004-02-23 08:22 51°13.696 2°52.48 7.6 71 3.7 101800 73
2004-02-23 08:23 51°13.574 2°52.116 6.3 68 3.7 101780 73
2004-02-23 08:24 51°13.454 2°51.768 7.5 61 3.7 101790 74
2004-02-23 08:25 51°13.33 2°51.417 8.3 59 3.7 101780 75
2004-02-23 08:26 51°13.205 2°51.062 7.7 65 3.8 101780 75
2004-02-23 08:27 51°13.081 2°50.699 9.6 66 3.8 101780 74
2004-02-23 08:28 51°12.96 2°50.352 8.3 62 3.8 101780 74
2004-02-23 08:29 51°12.833 2°49.988 9.5 63 3.8 101790 74
2004-02-23 08:30 51°12.708 2°49.634 7.7 73 3.9 101790 74
2004-02-23 08:31 51°12.587 2°49.28 8.1 77 3.9 101790 74
2004-02-23 08:32 51°12.465 2°48.918 7.1 75 3.9 101780 73
2004-02-23 08:33 51°12.342 2°48.556 8 76 4 101780 74
2004-02-23 08:34 51°12.221 2°48.195 6 67 4 101790 74
2004-02-23 08:35 51°12.097 2°47.835 7.3 62 4 101780 74
2004-02-23 08:36 51°11.974 2°47.482 7.9 65 4 101790 75
2004-02-23 08:37 51°11.848 2°47.126 7.5 70 4 101790 75
2004-02-23 08:38 51°11.727 2°46.773 8.5 77 4 101790 74
2004-02-23 08:39 51°11.614 2°46.423 8.2 70 4.1 101790 73
2004-02-23 08:40 51°11.497 2°46.068 7.7 62 4.1 101790 73
2004-02-23 08:41 51°11.377 2°45.72 6.8 67 4.2 101790 72
2004-02-23 08:42 51°11.258 2°45.373 7 73 4.2 101790 72
2004-02-23 08:43 51°11.143 2°45.017 9 82 4.3 101790 73
2004-02-23 08:44 51°11.031 2°44.674 11.9 95 4.2 101780 68
2004-02-23 08:45 51°10.91 2°44.336 13.2 101 4.3 101800 67
2004-02-23 08:46 51°10.804 2°43.99 14.4 97 4.4 101790 68
2004-02-23 08:47 51°10.686 2°43.662 10.1 103 4.4 101800 66
2004-02-23 08:48 51°10.621 2°43.302 14.8 80 4.5 101780 67
2004-02-23 08:49 51°10.568 2°42.942 11 79 4.5 101770 67
2004-02-23 08:50 51°10.515 2°42.561 13.9 81 4.5 101780 67
2004-02-23 08:51 51°10.471 2°42.182 14.8 62 4.5 101780 68
2004-02-23 08:52 51°10.438 2°41.791 13.1 77 4.5 101750 67
2004-02-23 08:53 51°10.403 2°41.401 11.5 70 4.4 101750 67
2004-02-23 08:54 51°10.366 2°41.006 14.5 83 4.4 101750 64
2004-02-23 08:55 51°10.327 2°40.599 10.7 80 4.4 101760 65
2004-02-23 08:56 51°10.289 2°40.193 11.3 78 4.5 101760 67
2004-02-23 08:57 51°10.254 2°39.806 10.5 79 4.4 101770 67
2004-02-23 08:58 51°10.213 2°39.407 11.7 71 4.5 101760 67
2004-02-23 08:59 51°10.17 2°39.003 10.1 75 4.4 101770 66
2004-02-23 09:00 51°10.131 2°38.617 10.6 78 4.5 101780 66
2004-02-23 09:01 51°10.09 2°38.22 11.7 84 4.5 101770 67
2004-02-23 09:02 51°10.051 2°37.828 9.6 77 4.5 101780 68
2004-02-23 09:03 51°10.002 2°37.442 13.6 85 4.5 101790 67
2004-02-23 09:04 51°9.955 2°37.043 14 86 4.5 101790 67
2004-02-23 09:05 51°9.909 2°36.653 13.1 70 4.4 101780 67
2004-02-23 09:06 51°9.923 2°36.253 13.2 52 4.2 101790 66
2004-02-23 09:07 51°10.037 2°35.921 16.3 41 4.1 101790 67
2004-02-23 09:08 51°10.221 2°35.813 17.9 18 4 101780 67
2004-02-23 09:09 51°10.419 2°35.849 17.3 15 4 101810 70
2004-02-23 09:10 51°10.618 2°35.886 17.6 23 3.8 101800 73
2004-02-23 09:11 51°10.813 2°35.916 19.5 17 3.5 101820 74
2004-02-23 09:12 51°10.991 2°36.023 17.8 14 3.4 101820 75
2004-02-23 09:13 51°11.164 2°36.166 17.9 9 3.3 101830 75
2004-02-23 09:14 51°11.323 2°36.337 18.1 8 3.3 101820 76
2004-02-23 09:15 51°11.476 2°36.523 19.2 356 3.4 101820 77
2004-02-23 09:16 51°11.589 2°36.767 17.2 351 3.2 101820 76
2004-02-23 09:17 51°11.7 2°37.008 17.8 1 3.2 101810 77
2004-02-23 09:18 51°11.808 2°37.256 17.3 352 3.2 101810 78
2004-02-23 09:19 51°11.91 2°37.511 15.5 357 3.1 101830 78
2004-02-23 09:20 51°12.012 2°37.77 16.1 351 3 101820 79
2004-02-23 09:21 51°12.116 2°38.026 14.9 356 3 101820 80
2004-02-23 09:22 51°12.215 2°38.295 16.9 350 3 101810 80
2004-02-23 09:23 51°12.317 2°38.562 16.7 350 3 101820 80
2004-02-23 09:24 51°12.418 2°38.827 15.1 352 2.9 101810 79
2004-02-23 09:25 51°12.522 2°39.093 16.3 355 3.1 101810 80
2004-02-23 09:26 51°12.624 2°39.359 14.3 359 3.1 101820 80
2004-02-23 09:27 51°12.728 2°39.628 15.4 1 3 101820 80
2004-02-23 09:28 51°12.828 2°39.897 13.9 351 3 101820 80
2004-02-23 09:29 51°12.93 2°40.166 13.1 353 3 101830 80
2004-02-23 09:30 51°13.032 2°40.429 13.2 347 3 101820 79
2004-02-23 09:31 51°13.132 2°40.69 13.8 343 3.1 101810 79
2004-02-23 09:32 51°13.232 2°40.95 13.1 351 3.1 101830 78
2004-02-23 09:33 51°13.333 2°41.208 14 345 3.2 101830 78
2004-02-23 09:34 51°13.433 2°41.47 11.9 348 3.3 101830 78
2004-02-23 09:35 51°13.532 2°41.731 11.9 349 3.4 101820 78
2004-02-23 09:36 51°13.632 2°41.988 13.3 343 3.4 101880 77
2004-02-23 09:37 51°13.732 2°42.246 13.9 342 3.5 101870 77
2004-02-23 09:38 51°13.829 2°42.51 13.4 339 3.6 101860 75
2004-02-23 09:39 51°13.917 2°42.781 14 337 3.6 101820 74
2004-02-23 09:40 51°14.008 2°43.052 14.7 339 3.8 101840 74
2004-02-23 09:41 51°14.097 2°43.325 13.1 337 3.8 101820 73
2004-02-23 09:42 51°14.187 2°43.595 13.1 339 3.9 101820 73
2004-02-23 09:43 51°14.277 2°43.867 12.3 341 3.9 101840 73
2004-02-23 09:44 51°14.367 2°44.142 14.6 342 4 101830 73
2004-02-23 09:45 51°14.457 2°44.42 15.6 331 4 101820 73
2004-02-23 09:46 51°14.539 2°44.705 14 340 4 101820 73
2004-02-23 09:47 51°14.611 2°45.003 13.8 346 4 101830 73
2004-02-23 09:48 51°14.681 2°45.304 12.9 336 4.1 101830 73
2004-02-23 09:49 51°14.753 2°45.6 14 334 4.1 101840 74
2004-02-23 09:50 51°14.824 2°45.898 11.3 351 4.1 101830 74
2004-02-23 09:51 51°14.895 2°46.197 12.4 331 4.1 101820 73
2004-02-23 09:52 51°14.967 2°46.495 12.8 345 4.1 101830 73
2004-02-23 09:53 51°15.041 2°46.793 13.9 338 4.1 101830 72
2004-02-23 09:54 51°15.113 2°47.092 12.9 333 4.1 101840 71
2004-02-23 09:55 51°15.182 2°47.393 12.7 339 4.1 101830 72
2004-02-23 09:56 51°15.253 2°47.693 14.4 336 4.2 101830 71
2004-02-23 09:57 51°15.322 2°47.994 12.9 338 4.2 101840 71
2004-02-23 09:58 51°15.389 2°48.299 13.2 342 4.2 101840 70
2004-02-23 09:59 51°15.461 2°48.605 12 346 4.3 101840 72
2004-02-23 10:00 51°15.53 2°48.918 12.9 342 4.3 101840 72
2004-02-23 10:01 51°15.599 2°49.23 13.1 343 4.2 101840 71
2004-02-23 10:02 51°15.668 2°49.545 14 334 4.2 101850 72
2004-02-23 10:03 51°15.737 2°49.859 13.7 330 4.3 101830 72
2004-02-23 10:04 51°15.805 2°50.163 13.9 342 4.3 101840 72
2004-02-23 10:05 51°15.874 2°50.464 12.2 344 4.2 101840 72
2004-02-23 10:06 51°15.945 2°50.773 15 333 4.2 101830 72
2004-02-23 10:07 51°16.016 2°51.078 14.7 331 4.2 101840 72
2004-02-23 10:08 51°16.083 2°51.386 12.6 337 4.2 101840 72
2004-02-23 10:09 51°16.151 2°51.695 13.8 339 4.2 101850 72
2004-02-23 10:10 51°16.213 2°52.005 12.3 333 4.2 101820 71
2004-02-23 10:11 51°16.34 2°52.202 14.7 11 4.2 101830 71
2004-02-23 10:12 51°16.524 2°52.184 13.7 6 4.2 101840 72
2004-02-23 10:13 51°16.712 2°52.197 15.2 12 4.3 101850 72
2004-02-23 10:14 51°16.896 2°52.221 13.3 5 4.2 101850 71
2004-02-23 10:15 51°17.074 2°52.235 13.5 8 4.1 101850 71
2004-02-23 10:16 51°17.258 2°52.249 15.1 4 4.1 101850 72
2004-02-23 10:17 51°17.439 2°52.262 11.4   4.2 101860 73
2004-02-23 10:18 51°17.618 2°52.288 13.7 359 4.2 101860 74
2004-02-23 10:19 51°17.801 2°52.358 13.9 358 4.2 101850 73
2004-02-23 10:20 51°17.977 2°52.446 12.9 353 4.2 101890 73
2004-02-23 10:21 51°18.149 2°52.541 13.4 354 4.2 101860 72
2004-02-23 10:22 51°18.318 2°52.651 13.3 348 4.2 101850 73
2004-02-23 10:23 51°18.485 2°52.769 12.4 352 4.2 101840 72
2004-02-23 10:24 51°18.658 2°52.888 10.7 349 4.2 101840 72
2004-02-23 10:25 51°18.809 2°53.057 10.9 340 4.3 101840 73
2004-02-23 10:26 51°18.902 2°53.322 11.4 344 4.4 101820 73
2004-02-23 10:27 51°18.975 2°53.608 11 337 4.4 101820 72
2004-02-23 10:28 51°19.042 2°53.898 13.1 327 4.4 101820 70
2004-02-23 10:29 51°19.113 2°54.183 14.3 327 4.4 101820 69
2004-02-23 10:30 51°19.185 2°54.463 13 329 4.5 101820 68
2004-02-23 10:31 51°19.257 2°54.746 12.9 333 4.5 101820 67
2004-02-23 10:32 51°19.33 2°55.03 11.7 337 4.6 101810 67
2004-02-23 10:33 51°19.399 2°55.316 15.7 328 4.7 101810 67
2004-02-23 10:34 51°19.467 2°55.602 20.5 227 4.8 101800 68
2004-02-23 10:35 51°19.534 2°55.892 21.8 318 4.5 101790 70
2004-02-23 10:36 51°19.605 2°56.181 15.3 320 4.1 101810 71
2004-02-23 10:37 51°19.676 2°56.466 21.3 312 3.9 101810 74
2004-02-23 10:38 51°19.744 2°56.75 20.2 315 3.6 101770 74
2004-02-23 10:39 51°19.814 2°57.033 16.3 308 3.2 101790 76
2004-02-23 10:40 51°19.884 2°57.321 15.2 313 3 101820 78
2004-02-23 10:41 51°19.959 2°57.608 13 312 2.8 101840 79
2004-02-23 10:42 51°20.033 2°57.895 12.2 226 2.8 101830 80
2004-02-23 10:43 51°20.106 2°58.184 10.2 317 2.7 101830 80
2004-02-23 10:44 51°20.181 2°58.475 14.3 312 2.8 101830 80
2004-02-23 10:45 51°20.256 2°58.767 11.7 326 2.9 101810 80
2004-02-23 10:46 51°20.335 2°59.058 12.4 321 2.9 101820 80
2004-02-23 10:47 51°20.411 2°59.35 14.1 42 3 101830 79
2004-02-23 10:48 51°20.478 2°59.652 13.3 318 3.1 101820 79
2004-02-23 10:49 51°20.535 2°59.961 14.7 42 3.2 101810 78
2004-02-23 10:50 51°20.595 3°0.268 12.3 312 3.4 101820 78
2004-02-23 10:51 51°20.654 3°0.573 14.4 310 3.6 101810 78
2004-02-23 10:52 51°20.714 3°0.876 13.3 316 3.8 101810 78
2004-02-23 10:53 51°20.777 3°1.178 13.4 324 3.9 101820 78
2004-02-23 10:54 51°20.833 3°1.489 15.1 318 4 101810 77
2004-02-23 10:55 51°20.895 3°1.796 15.9 226 4.1 101810 77
2004-02-23 10:56 51°20.955 3°2.101 12 327 4.2 101820 77
2004-02-23 10:57 51°21.012 3°2.404 14.2 323 4.1 101800 75
2004-02-23 10:58 51°21.074 3°2.705 17.8 323 4.2 101810 74
2004-02-23 10:59 51°21.134 3°3.008 13.9 328 4.2 101800 70
2004-02-23 11:00 51°21.192 3°3.311 17 327 4.3 101800 69
2004-02-23 11:01 51°21.254 3°3.612 15.7 320 4.3 101810 68
2004-02-23 11:02 51°21.315 3°3.914 15 320 4.5 101810 68
2004-02-23 11:03 51°21.374 3°4.219 17.5 317 4.5 101790 68
2004-02-23 11:04 51°21.43 3°4.53 16.3 315 4.5 101810 67
2004-02-23 11:05 51°21.492 3°4.837 14.9 326 4.5 101800 67
2004-02-23 11:06 51°21.554 3°5.148 16.3 319 4.5 101790 66
2004-02-23 11:07 51°21.615 3°5.462 16 318 4.6 101800 66
2004-02-23 11:08 51°21.677 3°5.775 15.4 316 4.5 101790 65
2004-02-23 11:09 51°21.737 3°6.089 15.4 326 4.6 101820 65
2004-02-23 11:10 51°21.792 3°6.406 14.8 326 4.6 101840 66
2004-02-23 11:11 51°21.84 3°6.727 16.1 42 4.6 101820 66
2004-02-23 11:12 51°21.892 3°7.047 16.4 318 4.6 101840 67
2004-02-23 11:13 51°21.934 3°7.369 16.9 228 4.6 101850 67
2004-02-23 11:14 51°21.964 3°7.699 15 227 4.6 101850 66
2004-02-23 11:15 51°21.994 3°8.031 17.4 311 4.6 101830 67
2004-02-23 11:16 51°22.013 3°8.366 13.5 319 4.6 101850 67
2004-02-23 11:17 51°22.03 3°8.703 13.2 43 4.7 101850 67
2004-02-23 11:18 51°22.052 3°9.038 14.7 44 4.7 101850 67
2004-02-23 11:19 51°22.093 3°9.369 13.7 322 4.6 101850 65
2004-02-23 11:20 51°22.142 3°9.698 13.8 327 4.6 101860 66
2004-02-23 11:21 51°22.204 3°10.018 15.2 328 4.6 101850 66
2004-02-23 11:22 51°22.264 3°10.339 15.2 323 4.6 101830 66
2004-02-23 11:23 51°22.327 3°10.657 15.7 324 4.6 101850 67
2004-02-23 11:24 51°22.391 3°10.973 12.1 325 4.6 101840 68
2004-02-23 11:25 51°22.454 3°11.286 13.3 327 4.6 101830 68
2004-02-23 11:26 51°22.52 3°11.595 15.3 322 4.6 101830 67
2004-02-23 11:27 51°22.585 3°11.908 11.8 326 4.6 101830 67
2004-02-23 11:28 51°22.647 3°12.222 14.9 322 4.6 101850 66
2004-02-23 11:29 51°22.709 3°12.544 15 322 4.6 101830 67
2004-02-23 11:30 51°22.781 3°12.859 14.9 329 4.7 101840 67
2004-02-23 11:31 51°22.959 3°12.994 17.4 355 4.7 101820 66
2004-02-23 11:32 51°23.164 3°13.065 16.4 353 4.7 101840 66
2004-02-23 11:33 51°23.369 3°13.139 17.6 357 4.7 101830 66
2004-02-23 11:34 51°23.571 3°13.203 19.3 2 4.8 101820 66
2004-02-23 11:35 51°23.777 3°13.202 16.6 26 4.8 101830 64
2004-02-23 11:36 51°23.925 3°12.968 15 52 4.7 101810 64
2004-02-23 11:37 51°23.969 3°12.615 14.6 57 4.7 101830 65
2004-02-23 11:38 51°24.008 3°12.254 15.4 64 4.6 101830 63
2004-02-23 11:39 51°24.055 3°11.895 14.3 58 4.6 101830 62
2004-02-23 11:40 51°24.093 3°11.531 14.1 57 4.6 101850 63
2004-02-23 11:41 51°24.118 3°11.161 13.7 63 4.6 101850 62
2004-02-23 11:42 51°24.156 3°10.796 14.6 64 4.6 101850 63
2004-02-23 11:43 51°24.206 3°10.45 14.5 55 4.7 101870 63
2004-02-23 11:44 51°24.257 3°10.103 12.5 59 4.7 101850 61
2004-02-23 11:45 51°24.288 3°9.75 12.8 65 4.7 101850 61
2004-02-23 11:46 51°24.302 3°9.392 12.4 70 4.8 101850 63
2004-02-23 11:47 51°24.302 3°9.033 15.6 67 4.8 101860 63
2004-02-23 11:48 51°24.305 3°8.68 10.9 75 4.8 101850 63
2004-02-23 11:49 51°24.301 3°8.323 10.7 72 4.8 101840 63
2004-02-23 11:50 51°24.29 3°7.96 11.3 72 4.8 101860 64
2004-02-23 11:51 51°24.256 3°7.602 13.6 87 4.8 101870 64
2004-02-23 11:52 51°24.221 3°7.24 9.8 78 4.7 101870 63
2004-02-23 11:53 51°24.183 3°6.881 11 79 4.8 101860 64
2004-02-23 11:54 51°24.124 3°6.522 18 87 4.8 101870 65
2004-02-23 11:55 51°24.066 3°6.16 14.6 85 4.8 101840 68
2004-02-23 11:56 51°24.057 3°5.8 17.4 64 4.7 101850 67
2004-02-23 11:57 51°24.134 3°5.481 17.8 60 4.2 101820 68
2004-02-23 11:58 51°24.229 3°5.172 15.8 61 3.3 101860 75
2004-02-23 11:59 51°24.322 3°4.86 16.8 68 3.2 101850 79
2004-02-23 12:00 51°24.409 3°4.542 17.5 57 3.2 101850 79
2004-02-23 12:01 51°24.496 3°4.219 17.4 62 3 101850 74
2004-02-23 12:02 51°24.581 3°3.901 15.3 69 2.8 101860 73
2004-02-23 12:03 51°24.665 3°3.583 15.9 64 2.7 101870 72
2004-02-23 12:04 51°24.738 3°3.255 13.6 69 2.7 101850 72
2004-02-23 12:05 51°24.777 3°2.903 8.9 76 2.8 101880 73
2004-02-23 12:06 51°24.722 3°2.546 7.2 109 2.8 101920 72
2004-02-23 12:07 51°24.641 3°2.195 8.7 83 2.8 101920 71
2004-02-23 12:08 51°24.569 3°1.838 8.9 95 2.8 101910 71
2004-02-23 12:09 51°24.496 3°1.482 6.6 75 2.8 101920 70
2004-02-23 12:10 51°24.425 3°1.125 8.8 94 2.9 101930 72
2004-02-23 12:11 51°24.356 3°0.769 10.7 93 3.1 101930 74
2004-02-23 12:12 51°24.288 3°0.411 8.3 92 3.3 101910 74
2004-02-23 12:13 51°24.219 3°0.055 8.9 98 3.4 101910 75
2004-02-23 12:14 51°24.149 2°59.691 6.8 98 3.6 101940 75
2004-02-23 12:15 51°24.079 2°59.331 6.4 100 3.7 101930 75
2004-02-23 12:16 51°24.003 2°58.974 5.9 103 3.7 101930 76
2004-02-23 12:17 51°23.93 2°58.61 5.1 76 3.8 101930 76
2004-02-23 12:18 51°23.851 2°58.245 7.7 89 3.8 101940 75
2004-02-23 12:19 51°23.775 2°57.882 6.8 88 3.9 101930 76
2004-02-23 12:20 51°23.696 2°57.52 6.1 89 3.9 101940 75
2004-02-23 12:21 51°23.622 2°57.158 7.7 95 3.9 101940 76
2004-02-23 12:22 51°23.551 2°56.794 7.5 95 3.9 101930 75
2004-02-23 12:23 51°23.502 2°56.428 8.8 86 4 101920 76
2004-02-23 12:24 51°23.464 2°56.061 7.8 90 3.9 101930 75
2004-02-23 12:25 51°23.423 2°55.696 8.5 87 3.9 101940 76
2004-02-23 12:26 51°23.383 2°55.326 8.7 79 4 101920 76
2004-02-23 12:27 51°23.354 2°54.956 10.9 89 4 101920 76
2004-02-23 12:28 51°23.325 2°54.588 10.7 89 4 101930 75
2004-02-23 12:29 51°23.295 2°54.224 9 83 4 101920 74
2004-02-23 12:30 51°23.271 2°53.858 10 83 3.9 101910 71
2004-02-23 12:31 51°23.243 2°53.497 6.6 90 4 101920 73
2004-02-23 12:32 51°23.218 2°53.135 9 81 4.1 101920 74
2004-02-23 12:33 51°23.194 2°52.77 11.9 92 4.1 101930 73
2004-02-23 12:34 51°23.168 2°52.405 7.8 80 4 101920 72
2004-02-23 12:35 51°23.143 2°52.037 8.2 83 4 101930 71
2004-02-23 12:36 51°23.121 2°51.678 5.3 80 4 101920 71
2004-02-23 12:37 51°23.091 2°51.322 12 85 4.1 101910 71
2004-02-23 12:38 51°23.065 2°50.964 8.4 85 4 101910 69
2004-02-23 12:39 51°23.041 2°50.61 7.8 81 4.1 101940 71
2004-02-23 12:40 51°23.018 2°50.256 7.9 89 4.1 101940 69
2004-02-23 12:41 51°22.998 2°49.899 6 73 4.1 101920 69
2004-02-23 12:42 51°22.978 2°49.544 7.9 75 4.1 101930 67
2004-02-23 12:43 51°22.96 2°49.188 7.6 82 4.1 101920 67
2004-02-23 12:44 51°22.924 2°48.84 6.6 88 4.2 101930 69
2004-02-23 12:45 51°22.795 2°48.54 4.5 53 4.4 101930 73
2004-02-23 12:46 51°22.634 2°48.271 6.4 79 4.4 101920 74
2004-02-23 12:47 51°22.469 2°48.019 5.2 86 4.3 101930 73
2004-02-23 12:48 51°22.263 2°47.842 1.4 81 4.2 101950 74
2004-02-23 12:49 51°22.041 2°47.717 1.3 66 4.2 101960 73
2004-02-23 12:50 51°21.811 2°47.639 1.3 328 4.4 101950 74
2004-02-23 12:51 51°21.579 2°47.605 0.6 10 4.5 101950 74
2004-02-23 12:52 51°21.343 2°47.616 2.4 314 4.6 101930 73
2004-02-23 12:53 51°21.119 2°47.7 2.6 305 4.7 101950 73
2004-02-23 12:54 51°20.89 2°47.782 3 269 4.7 101940 72
2004-02-23 12:55 51°20.664 2°47.871 4.5 282 4.6 101950 71
2004-02-23 12:56 51°20.469 2°48.079 6.8 335 4.7 101940 72
2004-02-23 12:57 51°20.291 2°48.326 7.5 303 4.8 101940 72
2004-02-23 12:58 51°20.112 2°48.573 9.2 288 4.6 101930 70
2004-02-23 12:59 51°19.926 2°48.809 9.6 306 4.5 101940 68
2004-02-23 13:00 51°19.741 2°49.046 7.7 295 4.5 101910 67
2004-02-23 13:01 51°19.554 2°49.272 8.7 294 4.6 101920 67
2004-02-23 13:02 51°19.365 2°49.505 9 294 4.5 101920 67
2004-02-23 13:03 51°19.175 2°49.744 9.5 291 4.6 101920 67
2004-02-23 13:04 51°18.986 2°49.984 8.2 295 4.6 101930 67
2004-02-23 13:05 51°18.8 2°50.234 6.5 299 4.6 101910 66
2004-02-23 13:06 51°18.617 2°50.466 8.4 303 4.6 101920 66
2004-02-23 13:07 51°18.432 2°50.716 11 289 4.6 101920 65
2004-02-23 13:08 51°18.252 2°50.963 8.6 277 4.6 101890 66
2004-02-23 13:09 51°18.064 2°51.193 10.7 296 4.6 101920 66
2004-02-23 13:10 51°17.89 2°51.459 8 292 4.6 101890 66
2004-02-23 13:11 51°17.712 2°51.723 9.5 274 4.6 101920 65
2004-02-23 13:12 51°17.538 2°51.986 9.3 266 4.6 101920 66
2004-02-23 13:13 51°17.364 2°52.242 8.2 277 4.6 101900 66
2004-02-23 13:14 51°17.168 2°52.437 7.7 264 4.7 101920 67
2004-02-23 13:15 51°16.954 2°52.594 5.2 257 4.7 101910 68
2004-02-23 13:16 51°16.739 2°52.743 8.1 268 4.7 101920 67
2004-02-23 13:17 51°16.543 2°52.932 6.2 285 4.7 101900 67
2004-02-23 13:18 51°16.344 2°53.133 6.4 290 4.6 101910 66
2004-02-23 13:19 51°16.145 2°53.32 6.1 263 4.6 101900 66
2004-02-23 13:20 51°15.952 2°53.52 9.7 291 4.7 101900 68
2004-02-23 13:21 51°15.747 2°53.714 10.5 309 4.8 101890 68
2004-02-23 13:22 51°15.562 2°53.861 7.8 295 4.7 101900 68
2004-02-23 13:23 51°15.437 2°53.978 6.1 297 4.7 101900 69
2004-02-23 13:24 51°15.26 2°54.125 7.6 306 4.6 101890 69
2004-02-23 13:25 51°15.06 2°54.28 8 310 4.5 101900 69
2004-02-23 13:26 51°14.858 2°54.442 8.2 287 4.4 101900 70
2004-02-23 13:27 51°14.665 2°54.631 8.1 310 4.4 101900 70
2004-02-23 13:28 51°14.491 2°54.858 9.3 229 4.4 101890 71
2004-02-23 13:29 51°14.356 2°55.12 6.2 325 4.3 101890 71
2004-02-23 13:30 51°14.219 2°55.322 4.8 314 4.3 101910 71
2004-02-23 13:31 51°14.09 2°55.443 4 269 4.4 101920 71
2004-02-23 13:32 51°13.979 2°55.526 4.2 297 4.3 101920 70
2004-02-23 13:33 51°13.875 2°55.609 1.9 250 4.4 101920 70
2004-02-23 13:34 51°13.774 2°55.689 4 346 4.5 101920 71
2004-02-23 13:35 51°13.691 2°55.828 4.5 327 4.5 101910 69
2004-02-23 13:36 51°13.637 2°55.962 5.1 329 4.6 101910 68
2004-02-23 13:37 51°13.606 2°56.057 4.6 41 4.6 101910 68
2004-02-23 13:38 51°13.592 2°56.103 6 264 4.6 101910 68